Rowleys Bay, WI

3:52 PM CDT on March 30, 2017 (GMT -0500)
MWISRB | | Change Station

Elev 688 ft 45.22 °N, 87.07 °W | Updated 8 hours ago

Light Rain
Light Rain
34.0 °F
Feels Like 34.0 °F
N
3.0
Wind Variable Wind from ENE

Today
High -- | Low -- °F
--% Chance of Precip.
Yesterday
High -- | Low -- °F
Precip. -- in
Pressure 29.92 in
Visibility 10.0 miles
Clouds Overcast 500 ft
Dew Point 28.0 °F
Humidity 80%
Rainfall in
Snow Depth Not available.
6:31 AM 7:14 PM
Waxing Crescent, 10% visible
SPECI KMNM 302035Z AUTO 05014KT 10SM -RA OVC005 01/01 A2992 RMK AO2 UPE10RAB10 P0000 FZRANO $
Pressure 29.92 in
Visibility 10.0 miles
Clouds Overcast 500 ft
Dew Point 28.0 °F
Humidity 80%
Rainfall in
Snow Depth Not available.
6:31 AM 7:14 PM
Waxing Crescent, 10% visible
SPECI KMNM 302035Z AUTO 05014KT 10SM -RA OVC005 01/01 A2992 RMK AO2 UPE10RAB10 P0000 FZRANO $

Get Severe Weather Alerts

Thanks for signing up!

Be on the lookout for a verification email in your inbox.

You'll start receiving the daily forecast at 8 AM.

×

10-Day Weather Forecast

Almanac

Astronomy

Mar. 30, 2017 Rise Set
Actual Time
Civil Twilight
Nautical Twilight
Astronomical Twilight
Moon
Length of Visible Light
Length of Day
Tomorrow will be .
, % of the Moon is Illuminated

Today's Extremes

State Highs State Lows

Community

WunderPhotos

Upload Photos

1,962,540 photos uploaded!

WunderBlog® & News

Nearby

Air Quality

  Air Quality AQ Index Pollutant
Not available.

Snow Depth

Station Depth Elevation

Earthquake Activity

City Distance Mag. Time & Date
Minimum magnitude displayed is 2.5.

Earthquake Activity

City Distance Mag. Time & Date
Minimum magnitude displayed is 2.5.

Coastal Water Temperatures

Place Temperature

Stations

Nearby Weather Stations

Station Location Temp. Windchill Dew Point Humidity Wind Precip. Elev Updated Type
                   

Watches & Warnings

There are currently no watches in effect.